sensor_id;sensor_type;location;lat;lon;timestamp;temperature;humidity
64705;DHT22;51131;52.298;13.686;2022-10-17T00:01:21;19.60;72.20
64705;DHT22;51131;52.298;13.686;2022-10-17T00:03:48;19.60;72.20
64705;DHT22;51131;52.298;13.686;2022-10-17T00:06:15;19.60;72.30
64705;DHT22;51131;52.298;13.686;2022-10-17T00:08:42;19.60;72.20
64705;DHT22;51131;52.298;13.686;2022-10-17T00:11:19;19.60;72.30
64705;DHT22;51131;52.298;13.686;2022-10-17T00:13:46;19.60;72.30
64705;DHT22;51131;52.298;13.686;2022-10-17T00:16:13;19.60;72.30
64705;DHT22;51131;52.298;13.686;2022-10-17T00:18:40;19.60;72.30
64705;DHT22;51131;52.298;13.686;2022-10-17T00:21:13;19.60;72.30
64705;DHT22;51131;52.298;13.686;2022-10-17T00:23:40;19.60;72.30
64705;DHT22;51131;52.298;13.686;2022-10-17T00:26:07;19.60;72.40
64705;DHT22;51131;52.298;13.686;2022-10-17T00:28:33;19.60;72.40
64705;DHT22;51131;52.298;13.686;2022-10-17T00:31:01;19.60;72.30
64705;DHT22;51131;52.298;13.686;2022-10-17T00:33:29;20.30;73.20
64705;DHT22;51131;52.298;13.686;2022-10-17T00:36:13;19.60;72.30
64705;DHT22;51131;52.298;13.686;2022-10-17T00:38:40;19.60;72.50
64705;DHT22;51131;52.298;13.686;2022-10-17T00:41:08;19.60;72.40
64705;DHT22;51131;52.298;13.686;2022-10-17T00:46:21;19.60;72.50
64705;DHT22;51131;52.298;13.686;2022-10-17T00:48:49;19.60;72.50
64705;DHT22;51131;52.298;13.686;2022-10-17T00:51:16;20.00;72.90
64705;DHT22;51131;52.298;13.686;2022-10-17T00:53:45;19.60;72.50
64705;DHT22;51131;52.298;13.686;2022-10-17T00:56:12;19.60;72.40
64705;DHT22;51131;52.298;13.686;2022-10-17T00:58:38;19.60;72.50
64705;DHT22;51131;52.298;13.686;2022-10-17T01:01:05;19.60;72.50
64705;DHT22;51131;52.298;13.686;2022-10-17T01:03:32;19.60;72.50
64705;DHT22;51131;52.298;13.686;2022-10-17T01:05:59;19.50;72.40
64705;DHT22;51131;52.298;13.686;2022-10-17T01:08:25;19.50;72.30
64705;DHT22;51131;52.298;13.686;2022-10-17T01:11:04;19.60;72.50
64705;DHT22;51131;52.298;13.686;2022-10-17T01:18:39;19.50;72.40
64705;DHT22;51131;52.298;13.686;2022-10-17T01:21:13;19.50;72.40
64705;DHT22;51131;52.298;13.686;2022-10-17T01:24:02;19.80;72.80
64705;DHT22;51131;52.298;13.686;2022-10-17T01:29:14;19.50;72.60
64705;DHT22;51131;52.298;13.686;2022-10-17T01:34:19;19.50;72.70
64705;DHT22;51131;52.298;13.686;2022-10-17T01:36:55;19.50;72.60
64705;DHT22;51131;52.298;13.686;2022-10-17T01:42:12;19.50;72.60
64705;DHT22;51131;52.298;13.686;2022-10-17T01:44:43;19.50;72.60
64705;DHT22;51131;52.298;13.686;2022-10-17T01:47:12;19.70;72.90
64705;DHT22;51131;52.298;13.686;2022-10-17T01:49:41;19.50;72.50
64705;DHT22;51131;52.298;13.686;2022-10-17T01:52:09;19.70;72.80
64705;DHT22;51131;52.298;13.686;2022-10-17T01:54:48;19.90;72.90
64705;DHT22;51131;52.298;13.686;2022-10-17T01:57:28;19.50;72.70
64705;DHT22;51131;52.298;13.686;2022-10-17T01:59:56;19.50;72.60
64705;DHT22;51131;52.298;13.686;2022-10-17T02:02:23;19.50;72.70
64705;DHT22;51131;52.298;13.686;2022-10-17T02:04:51;19.50;72.60
64705;DHT22;51131;52.298;13.686;2022-10-17T02:07:20;19.50;72.50
64705;DHT22;51131;52.298;13.686;2022-10-17T02:09:47;19.60;72.50
64705;DHT22;51131;52.298;13.686;2022-10-17T02:12:27;19.70;72.80
64705;DHT22;51131;52.298;13.686;2022-10-17T02:17:43;19.50;72.70
64705;DHT22;51131;52.298;13.686;2022-10-17T02:25:28;19.40;72.60
64705;DHT22;51131;52.298;13.686;2022-10-17T02:28:03;19.40;72.60
64705;DHT22;51131;52.298;13.686;2022-10-17T02:30:36;19.50;72.70
64705;DHT22;51131;52.298;13.686;2022-10-17T02:33:06;19.50;72.70
64705;DHT22;51131;52.298;13.686;2022-10-17T02:35:42;19.50;72.70
64705;DHT22;51131;52.298;13.686;2022-10-17T02:38:10;19.50;72.60
64705;DHT22;51131;52.298;13.686;2022-10-17T02:40:37;19.40;72.50
64705;DHT22;51131;52.298;13.686;2022-10-17T02:43:05;19.40;72.70
64705;DHT22;51131;52.298;13.686;2022-10-17T02:45:31;19.40;72.70
64705;DHT22;51131;52.298;13.686;2022-10-17T02:48:02;19.40;72.60
64705;DHT22;51131;52.298;13.686;2022-10-17T02:53:37;19.50;72.70
64705;DHT22;51131;52.298;13.686;2022-10-17T02:56:07;19.40;72.60
64705;DHT22;51131;52.298;13.686;2022-10-17T02:58:36;19.40;72.70
64705;DHT22;51131;52.298;13.686;2022-10-17T03:01:03;19.20;72.50
64705;DHT22;51131;52.298;13.686;2022-10-17T03:03:30;19.40;72.50
64705;DHT22;51131;52.298;13.686;2022-10-17T03:05:57;19.50;72.70
64705;DHT22;51131;52.298;13.686;2022-10-17T03:08:24;19.70;72.90
64705;DHT22;51131;52.298;13.686;2022-10-17T03:10:51;19.40;72.60
64705;DHT22;51131;52.298;13.686;2022-10-17T03:13:18;19.40;72.70
64705;DHT22;51131;52.298;13.686;2022-10-17T03:15:44;19.40;72.70
64705;DHT22;51131;52.298;13.686;2022-10-17T03:18:11;19.90;73.10
64705;DHT22;51131;52.298;13.686;2022-10-17T03:20:38;19.80;73.00
64705;DHT22;51131;52.298;13.686;2022-10-17T03:23:05;19.90;73.20
64705;DHT22;51131;52.298;13.686;2022-10-17T03:25:31;19.40;72.70
64705;DHT22;51131;52.298;13.686;2022-10-17T03:27:58;19.40;72.90
64705;DHT22;51131;52.298;13.686;2022-10-17T03:30:27;19.40;72.80
64705;DHT22;51131;52.298;13.686;2022-10-17T03:32:53;19.40;72.80
64705;DHT22;51131;52.298;13.686;2022-10-17T03:35:20;19.40;72.80
64705;DHT22;51131;52.298;13.686;2022-10-17T03:37:47;19.40;72.70
64705;DHT22;51131;52.298;13.686;2022-10-17T03:40:14;19.40;72.90
64705;DHT22;51131;52.298;13.686;2022-10-17T03:42:40;19.40;72.90
64705;DHT22;51131;52.298;13.686;2022-10-17T03:45:07;19.40;72.80
64705;DHT22;51131;52.298;13.686;2022-10-17T03:47:34;19.40;72.70
64705;DHT22;51131;52.298;13.686;2022-10-17T03:50:01;19.40;73.00
64705;DHT22;51131;52.298;13.686;2022-10-17T03:52:27;19.40;72.40
64705;DHT22;51131;52.298;13.686;2022-10-17T03:54:54;19.50;71.90
64705;DHT22;51131;52.298;13.686;2022-10-17T03:57:21;19.90;72.30
64705;DHT22;51131;52.298;13.686;2022-10-17T03:59:48;19.60;72.00
64705;DHT22;51131;52.298;13.686;2022-10-17T04:02:15;19.60;72.00
64705;DHT22;51131;52.298;13.686;2022-10-17T04:04:42;19.60;71.90
64705;DHT22;51131;52.298;13.686;2022-10-17T04:07:09;19.60;72.00
64705;DHT22;51131;52.298;13.686;2022-10-17T04:09:35;19.60;71.90
64705;DHT22;51131;52.298;13.686;2022-10-17T04:12:02;19.60;71.90
64705;DHT22;51131;52.298;13.686;2022-10-17T04:14:29;19.60;71.90
64705;DHT22;51131;52.298;13.686;2022-10-17T04:16:56;19.80;72.20
64705;DHT22;51131;52.298;13.686;2022-10-17T04:19:24;20.10;72.40
64705;DHT22;51131;52.298;13.686;2022-10-17T04:21:51;19.80;72.10
64705;DHT22;51131;52.298;13.686;2022-10-17T04:24:18;19.90;72.00
64705;DHT22;51131;52.298;13.686;2022-10-17T04:26:44;20.00;71.80
64705;DHT22;51131;52.298;13.686;2022-10-17T04:29:11;20.50;71.80
64705;DHT22;51131;52.298;13.686;2022-10-17T04:31:38;20.40;71.40
64705;DHT22;51131;52.298;13.686;2022-10-17T04:34:05;20.60;71.30
64705;DHT22;51131;52.298;13.686;2022-10-17T04:36:31;20.70;71.30
64705;DHT22;51131;52.298;13.686;2022-10-17T04:38:59;20.70;71.20
64705;DHT22;51131;52.298;13.686;2022-10-17T04:41:27;20.20;70.80
64705;DHT22;51131;52.298;13.686;2022-10-17T04:43:54;20.20;70.70
64705;DHT22;51131;52.298;13.686;2022-10-17T04:46:21;20.20;70.60
64705;DHT22;51131;52.298;13.686;2022-10-17T04:48:47;20.10;70.70
64705;DHT22;51131;52.298;13.686;2022-10-17T04:51:15;20.30;71.00
64705;DHT22;51131;52.298;13.686;2022-10-17T04:53:45;20.60;71.40
64705;DHT22;51131;52.298;13.686;2022-10-17T04:56:13;20.70;71.60
64705;DHT22;51131;52.298;13.686;2022-10-17T04:58:39;20.00;71.00
64705;DHT22;51131;52.298;13.686;2022-10-17T05:01:07;20.30;71.30
64705;DHT22;51131;52.298;13.686;2022-10-17T05:03:35;20.00;71.20
64705;DHT22;51131;52.298;13.686;2022-10-17T05:06:24;20.00;71.10
64705;DHT22;51131;52.298;13.686;2022-10-17T05:08:49;20.00;71.30
64705;DHT22;51131;52.298;13.686;2022-10-17T05:11:20;20.00;71.30
64705;DHT22;51131;52.298;13.686;2022-10-17T05:13:54;20.00;71.20
64705;DHT22;51131;52.298;13.686;2022-10-17T05:16:22;20.00;71.20
64705;DHT22;51131;52.298;13.686;2022-10-17T05:18:50;20.00;71.20
64705;DHT22;51131;52.298;13.686;2022-10-17T05:21:19;20.70;71.90
64705;DHT22;51131;52.298;13.686;2022-10-17T05:23:46;20.00;71.30
64705;DHT22;51131;52.298;13.686;2022-10-17T05:26:13;20.00;71.20
64705;DHT22;51131;52.298;13.686;2022-10-17T05:28:40;20.00;71.40
64705;DHT22;51131;52.298;13.686;2022-10-17T05:31:07;19.90;71.20
64705;DHT22;51131;52.298;13.686;2022-10-17T05:33:34;19.90;71.40
64705;DHT22;51131;52.298;13.686;2022-10-17T05:36:02;19.90;71.50
64705;DHT22;51131;52.298;13.686;2022-10-17T05:38:28;19.90;71.50
64705;DHT22;51131;52.298;13.686;2022-10-17T05:40:59;19.80;71.40
64705;DHT22;51131;52.298;13.686;2022-10-17T05:43:26;19.90;71.60
64705;DHT22;51131;52.298;13.686;2022-10-17T05:45:53;19.90;72.20
64705;DHT22;51131;52.298;13.686;2022-10-17T05:48:20;19.90;71.60
64705;DHT22;51131;52.298;13.686;2022-10-17T05:50:47;19.90;71.60
64705;DHT22;51131;52.298;13.686;2022-10-17T05:53:14;19.90;71.60
64705;DHT22;51131;52.298;13.686;2022-10-17T05:55:41;19.90;71.70
64705;DHT22;51131;52.298;13.686;2022-10-17T05:58:08;19.90;71.60
64705;DHT22;51131;52.298;13.686;2022-10-17T06:00:47;20.40;72.10
64705;DHT22;51131;52.298;13.686;2022-10-17T06:03:14;20.30;72.00
64705;DHT22;51131;52.298;13.686;2022-10-17T06:05:41;19.90;71.60
64705;DHT22;51131;52.298;13.686;2022-10-17T06:08:08;20.20;72.00
64705;DHT22;51131;52.298;13.686;2022-10-17T06:10:34;19.90;71.70
64705;DHT22;51131;52.298;13.686;2022-10-17T06:13:01;19.90;71.60
64705;DHT22;51131;52.298;13.686;2022-10-17T06:15:28;19.90;71.60
64705;DHT22;51131;52.298;13.686;2022-10-17T06:17:54;19.90;71.60
64705;DHT22;51131;52.298;13.686;2022-10-17T06:20:21;19.90;71.60
64705;DHT22;51131;52.298;13.686;2022-10-17T06:22:47;19.90;71.60
64705;DHT22;51131;52.298;13.686;2022-10-17T06:25:14;19.90;71.70
64705;DHT22;51131;52.298;13.686;2022-10-17T06:27:41;19.90;71.60
64705;DHT22;51131;52.298;13.686;2022-10-17T06:30:08;19.90;71.70
64705;DHT22;51131;52.298;13.686;2022-10-17T06:32:35;19.90;71.70
64705;DHT22;51131;52.298;13.686;2022-10-17T06:35:01;19.90;71.80
64705;DHT22;51131;52.298;13.686;2022-10-17T06:37:31;19.90;71.80
64705;DHT22;51131;52.298;13.686;2022-10-17T06:40:02;19.90;71.80
64705;DHT22;51131;52.298;13.686;2022-10-17T06:42:30;19.90;71.80
64705;DHT22;51131;52.298;13.686;2022-10-17T06:44:56;19.90;71.80
64705;DHT22;51131;52.298;13.686;2022-10-17T06:47:23;19.90;71.80
64705;DHT22;51131;52.298;13.686;2022-10-17T06:49:50;19.90;71.80
64705;DHT22;51131;52.298;13.686;2022-10-17T06:52:16;19.90;71.90
64705;DHT22;51131;52.298;13.686;2022-10-17T06:54:43;19.90;71.90
64705;DHT22;51131;52.298;13.686;2022-10-17T06:57:10;19.90;72.00
64705;DHT22;51131;52.298;13.686;2022-10-17T06:59:36;19.90;72.00
64705;DHT22;51131;52.298;13.686;2022-10-17T07:02:03;19.80;72.00
64705;DHT22;51131;52.298;13.686;2022-10-17T07:04:31;19.90;72.20
64705;DHT22;51131;52.298;13.686;2022-10-17T07:06:57;19.90;72.10
64705;DHT22;51131;52.298;13.686;2022-10-17T07:09:24;19.90;72.10
64705;DHT22;51131;52.298;13.686;2022-10-17T07:11:52;20.50;72.70
64705;DHT22;51131;52.298;13.686;2022-10-17T07:14:18;19.90;72.10
64705;DHT22;51131;52.298;13.686;2022-10-17T07:16:45;19.90;72.20
64705;DHT22;51131;52.298;13.686;2022-10-17T07:19:12;20.40;73.30
64705;DHT22;51131;52.298;13.686;2022-10-17T07:21:39;19.90;72.20
64705;DHT22;51131;52.298;13.686;2022-10-17T07:24:05;19.90;72.30
64705;DHT22;51131;52.298;13.686;2022-10-17T07:26:32;19.90;72.40
64705;DHT22;51131;52.298;13.686;2022-10-17T07:28:59;19.90;72.30
64705;DHT22;51131;52.298;13.686;2022-10-17T07:31:27;19.90;72.30
64705;DHT22;51131;52.298;13.686;2022-10-17T07:33:54;20.00;72.40
64705;DHT22;51131;52.298;13.686;2022-10-17T07:36:20;20.00;72.50
64705;DHT22;51131;52.298;13.686;2022-10-17T07:38:47;19.90;72.40
64705;DHT22;51131;52.298;13.686;2022-10-17T07:41:13;19.90;72.50
64705;DHT22;51131;52.298;13.686;2022-10-17T07:43:55;19.90;72.70
64705;DHT22;51131;52.298;13.686;2022-10-17T07:46:21;20.00;72.60
64705;DHT22;51131;52.298;13.686;2022-10-17T07:48:48;20.00;72.60
64705;DHT22;51131;52.298;13.686;2022-10-17T07:51:15;20.30;72.90
64705;DHT22;51131;52.298;13.686;2022-10-17T07:53:43;20.00;72.70
64705;DHT22;51131;52.298;13.686;2022-10-17T07:56:14;20.00;72.70
64705;DHT22;51131;52.298;13.686;2022-10-17T07:58:41;20.10;72.80
64705;DHT22;51131;52.298;13.686;2022-10-17T08:01:08;20.00;72.70
64705;DHT22;51131;52.298;13.686;2022-10-17T08:03:42;20.00;72.80
64705;DHT22;51131;52.298;13.686;2022-10-17T08:06:08;20.00;72.90
64705;DHT22;51131;52.298;13.686;2022-10-17T08:08:35;20.00;72.80
64705;DHT22;51131;52.298;13.686;2022-10-17T08:11:03;20.00;72.90
64705;DHT22;51131;52.298;13.686;2022-10-17T08:13:30;20.00;72.80
64705;DHT22;51131;52.298;13.686;2022-10-17T08:15:58;20.00;72.80
64705;DHT22;51131;52.298;13.686;2022-10-17T08:18:24;20.00;73.00
64705;DHT22;51131;52.298;13.686;2022-10-17T08:20:51;20.00;73.10
64705;DHT22;51131;52.298;13.686;2022-10-17T08:23:24;20.00;73.00
64705;DHT22;51131;52.298;13.686;2022-10-17T08:25:51;20.00;72.90
64705;DHT22;51131;52.298;13.686;2022-10-17T08:28:18;20.00;72.90
64705;DHT22;51131;52.298;13.686;2022-10-17T08:30:44;20.10;73.00
64705;DHT22;51131;52.298;13.686;2022-10-17T08:33:11;20.10;73.00
64705;DHT22;51131;52.298;13.686;2022-10-17T08:35:38;20.10;73.00
64705;DHT22;51131;52.298;13.686;2022-10-17T08:38:04;20.10;73.10
64705;DHT22;51131;52.298;13.686;2022-10-17T08:40:36;20.00;73.10
64705;DHT22;51131;52.298;13.686;2022-10-17T08:48:17;20.00;73.20
64705;DHT22;51131;52.298;13.686;2022-10-17T08:53:19;20.10;73.30
64705;DHT22;51131;52.298;13.686;2022-10-17T08:55:47;20.10;73.30
64705;DHT22;51131;52.298;13.686;2022-10-17T09:00:44;20.10;73.20
64705;DHT22;51131;52.298;13.686;2022-10-17T09:08:11;20.50;73.80
64705;DHT22;51131;52.298;13.686;2022-10-17T09:10:44;20.10;73.40
64705;DHT22;51131;52.298;13.686;2022-10-17T09:13:18;20.10;73.60
64705;DHT22;51131;52.298;13.686;2022-10-17T09:18:25;20.10;73.20
64705;DHT22;51131;52.298;13.686;2022-10-17T09:20:53;20.10;73.40
64705;DHT22;51131;52.298;13.686;2022-10-17T09:23:24;20.10;73.90
64705;DHT22;51131;52.298;13.686;2022-10-17T09:25:53;20.10;73.50
64705;DHT22;51131;52.298;13.686;2022-10-17T09:28:28;20.10;73.50
64705;DHT22;51131;52.298;13.686;2022-10-17T09:33:44;20.10;73.70
64705;DHT22;51131;52.298;13.686;2022-10-17T09:36:26;20.10;73.60
64705;DHT22;51131;52.298;13.686;2022-10-17T09:39:16;20.10;73.80
64705;DHT22;51131;52.298;13.686;2022-10-17T09:44:17;20.10;73.70
64705;DHT22;51131;52.298;13.686;2022-10-17T09:47:01;20.20;73.90
64705;DHT22;51131;52.298;13.686;2022-10-17T09:49:32;20.20;73.90
64705;DHT22;51131;52.298;13.686;2022-10-17T09:52:02;20.20;73.80
64705;DHT22;51131;52.298;13.686;2022-10-17T09:54:40;20.20;74.50
64705;DHT22;51131;52.298;13.686;2022-10-17T09:57:08;20.20;74.00
64705;DHT22;51131;52.298;13.686;2022-10-17T09:59:46;20.20;74.00
64705;DHT22;51131;52.298;13.686;2022-10-17T10:02:20;20.10;74.00
64705;DHT22;51131;52.298;13.686;2022-10-17T10:04:50;20.10;74.20
64705;DHT22;51131;52.298;13.686;2022-10-17T10:07:30;20.20;74.40
64705;DHT22;51131;52.298;13.686;2022-10-17T10:09:57;20.20;75.00
64705;DHT22;51131;52.298;13.686;2022-10-17T10:12:29;20.20;74.40
64705;DHT22;51131;52.298;13.686;2022-10-17T10:14:57;20.20;74.40
64705;DHT22;51131;52.298;13.686;2022-10-17T10:17:25;20.20;74.20
64705;DHT22;51131;52.298;13.686;2022-10-17T10:19:52;20.30;74.20
64705;DHT22;51131;52.298;13.686;2022-10-17T10:22:19;20.40;74.40
64705;DHT22;51131;52.298;13.686;2022-10-17T10:24:56;20.20;74.10
64705;DHT22;51131;52.298;13.686;2022-10-17T10:27:31;20.20;74.10
64705;DHT22;51131;52.298;13.686;2022-10-17T10:29:58;20.20;74.10
64705;DHT22;51131;52.298;13.686;2022-10-17T10:32:29;20.10;74.20
64705;DHT22;51131;52.298;13.686;2022-10-17T10:34:58;20.20;74.30
64705;DHT22;51131;52.298;13.686;2022-10-17T10:37:31;20.20;74.60
64705;DHT22;51131;52.298;13.686;2022-10-17T10:40:03;20.20;74.60
64705;DHT22;51131;52.298;13.686;2022-10-17T10:42:35;20.20;74.50
64705;DHT22;51131;52.298;13.686;2022-10-17T10:50:59;20.40;74.30
64705;DHT22;51131;52.298;13.686;2022-10-17T10:53:40;20.50;74.00
64705;DHT22;51131;52.298;13.686;2022-10-17T10:56:13;20.50;73.80
64705;DHT22;51131;52.298;13.686;2022-10-17T10:58:56;20.60;73.70
64705;DHT22;51131;52.298;13.686;2022-10-17T11:03:53;20.60;73.80
64705;DHT22;51131;52.298;13.686;2022-10-17T11:06:23;20.70;73.90
64705;DHT22;51131;52.298;13.686;2022-10-17T11:09:03;20.50;75.30
64705;DHT22;51131;52.298;13.686;2022-10-17T11:11:31;20.50;74.70
64705;DHT22;51131;52.298;13.686;2022-10-17T11:14:02;20.50;74.50
64705;DHT22;51131;52.298;13.686;2022-10-17T11:19:02;20.50;74.30
64705;DHT22;51131;52.298;13.686;2022-10-17T11:24:09;20.00;73.90
64705;DHT22;51131;52.298;13.686;2022-10-17T11:26:40;20.50;74.60
64705;DHT22;51131;52.298;13.686;2022-10-17T11:29:08;20.50;74.30
64705;DHT22;51131;52.298;13.686;2022-10-17T11:31:38;20.50;74.50
64705;DHT22;51131;52.298;13.686;2022-10-17T11:34:16;20.70;74.90
64705;DHT22;51131;52.298;13.686;2022-10-17T11:36:46;20.50;74.60
64705;DHT22;51131;52.298;13.686;2022-10-17T11:39:31;20.50;74.50
64705;DHT22;51131;52.298;13.686;2022-10-17T11:42:05;20.50;74.70
64705;DHT22;51131;52.298;13.686;2022-10-17T11:44:36;20.50;74.60
64705;DHT22;51131;52.298;13.686;2022-10-17T11:49:34;20.40;74.50
64705;DHT22;51131;52.298;13.686;2022-10-17T11:54:36;20.40;74.40
64705;DHT22;51131;52.298;13.686;2022-10-17T11:59:52;20.40;74.70
64705;DHT22;51131;52.298;13.686;2022-10-17T12:04:55;20.40;74.70
64705;DHT22;51131;52.298;13.686;2022-10-17T12:12:30;20.40;74.70
64705;DHT22;51131;52.298;13.686;2022-10-17T12:15:31;20.40;74.70
64705;DHT22;51131;52.298;13.686;2022-10-17T12:17:58;20.40;74.60
64705;DHT22;51131;52.298;13.686;2022-10-17T12:23:17;20.40;74.70
64705;DHT22;51131;52.298;13.686;2022-10-17T12:25:49;20.40;74.70
64705;DHT22;51131;52.298;13.686;2022-10-17T12:38:44;20.30;74.40
64705;DHT22;51131;52.298;13.686;2022-10-17T12:41:15;20.30;74.40
64705;DHT22;51131;52.298;13.686;2022-10-17T12:43:47;20.30;74.40
64705;DHT22;51131;52.298;13.686;2022-10-17T12:49:01;20.30;74.40
64705;DHT22;51131;52.298;13.686;2022-10-17T12:51:28;20.30;74.30
64705;DHT22;51131;52.298;13.686;2022-10-17T12:54:11;20.30;74.20
64705;DHT22;51131;52.298;13.686;2022-10-17T12:59:12;20.30;74.00
64705;DHT22;51131;52.298;13.686;2022-10-17T13:01:42;20.20;74.70
64705;DHT22;51131;52.298;13.686;2022-10-17T13:04:09;20.30;74.80
64705;DHT22;51131;52.298;13.686;2022-10-17T13:06:37;20.20;74.60
64705;DHT22;51131;52.298;13.686;2022-10-17T13:11:41;20.30;74.70
64705;DHT22;51131;52.298;13.686;2022-10-17T13:14:12;20.30;74.60
64705;DHT22;51131;52.298;13.686;2022-10-17T13:16:40;20.30;74.70
64705;DHT22;51131;52.298;13.686;2022-10-17T13:19:18;20.30;74.80
64705;DHT22;51131;52.298;13.686;2022-10-17T13:21:58;20.30;74.90
64705;DHT22;51131;52.298;13.686;2022-10-17T13:24:34;20.20;74.90
64705;DHT22;51131;52.298;13.686;2022-10-17T13:27:02;20.20;74.90
64705;DHT22;51131;52.298;13.686;2022-10-17T13:29:29;20.30;75.00
64705;DHT22;51131;52.298;13.686;2022-10-17T13:31:58;20.90;75.60
64705;DHT22;51131;52.298;13.686;2022-10-17T13:34:27;20.20;75.10
64705;DHT22;51131;52.298;13.686;2022-10-17T13:36:54;20.20;75.20
64705;DHT22;51131;52.298;13.686;2022-10-17T13:39:22;20.50;75.40
64705;DHT22;51131;52.298;13.686;2022-10-17T13:42:23;20.20;75.10
64705;DHT22;51131;52.298;13.686;2022-10-17T13:44:50;20.20;75.30
64705;DHT22;51131;52.298;13.686;2022-10-17T13:47:24;20.20;75.20
64705;DHT22;51131;52.298;13.686;2022-10-17T13:49:52;20.20;75.20
64705;DHT22;51131;52.298;13.686;2022-10-17T13:52:22;20.10;75.30
64705;DHT22;51131;52.298;13.686;2022-10-17T13:54:50;20.50;75.80
64705;DHT22;51131;52.298;13.686;2022-10-17T13:57:22;20.10;75.30
64705;DHT22;51131;52.298;13.686;2022-10-17T13:59:51;20.10;75.30
64705;DHT22;51131;52.298;13.686;2022-10-17T14:02:19;20.20;75.50
64705;DHT22;51131;52.298;13.686;2022-10-17T14:04:52;20.10;75.50
64705;DHT22;51131;52.298;13.686;2022-10-17T14:07:55;20.20;75.70
64705;DHT22;51131;52.298;13.686;2022-10-17T14:10:42;20.10;75.50
64705;DHT22;51131;52.298;13.686;2022-10-17T14:13:22;20.10;75.40
64705;DHT22;51131;52.298;13.686;2022-10-17T14:15:50;20.10;75.50
64705;DHT22;51131;52.298;13.686;2022-10-17T14:18:28;20.10;75.40
64705;DHT22;51131;52.298;13.686;2022-10-17T14:21:01;20.10;75.40
64705;DHT22;51131;52.298;13.686;2022-10-17T14:23:49;20.10;75.40
64705;DHT22;51131;52.298;13.686;2022-10-17T14:26:20;20.40;75.80
64705;DHT22;51131;52.298;13.686;2022-10-17T14:28:48;20.10;75.40
64705;DHT22;51131;52.298;13.686;2022-10-17T14:33:43;20.10;75.40
64705;DHT22;51131;52.298;13.686;2022-10-17T14:36:16;20.00;75.40
64705;DHT22;51131;52.298;13.686;2022-10-17T14:38:44;20.00;75.30
64705;DHT22;51131;52.298;13.686;2022-10-17T14:41:18;20.00;75.50
64705;DHT22;51131;52.298;13.686;2022-10-17T14:44:07;20.00;75.40
64705;DHT22;51131;52.298;13.686;2022-10-17T14:46:42;20.00;75.50
64705;DHT22;51131;52.298;13.686;2022-10-17T14:54:44;20.00;75.40
64705;DHT22;51131;52.298;13.686;2022-10-17T14:57:25;20.00;75.30
64705;DHT22;51131;52.298;13.686;2022-10-17T14:59:53;20.00;75.40
64705;DHT22;51131;52.298;13.686;2022-10-17T15:02:25;20.50;75.90
64705;DHT22;51131;52.298;13.686;2022-10-17T15:04:52;20.00;75.40
64705;DHT22;51131;52.298;13.686;2022-10-17T15:07:19;20.00;75.40
64705;DHT22;51131;52.298;13.686;2022-10-17T15:09:51;20.50;76.00
64705;DHT22;51131;52.298;13.686;2022-10-17T15:12:19;20.00;75.40
64705;DHT22;51131;52.298;13.686;2022-10-17T15:14:47;20.00;75.30
64705;DHT22;51131;52.298;13.686;2022-10-17T15:17:15;20.30;75.70
64705;DHT22;51131;52.298;13.686;2022-10-17T15:19:43;20.00;75.50
64705;DHT22;51131;52.298;13.686;2022-10-17T15:22:10;20.10;75.60
64705;DHT22;51131;52.298;13.686;2022-10-17T15:24:37;20.00;75.50
64705;DHT22;51131;52.298;13.686;2022-10-17T15:27:37;20.00;75.70
64705;DHT22;51131;52.298;13.686;2022-10-17T15:29:58;20.10;75.90
64705;DHT22;51131;52.298;13.686;2022-10-17T15:32:25;20.00;75.60
64705;DHT22;51131;52.298;13.686;2022-10-17T15:34:51;20.10;75.60
64705;DHT22;51131;52.298;13.686;2022-10-17T15:39:51;20.10;75.40
64705;DHT22;51131;52.298;13.686;2022-10-17T15:42:21;20.20;75.40
64705;DHT22;51131;52.298;13.686;2022-10-17T15:44:48;19.80;74.90
64705;DHT22;51131;52.298;13.686;2022-10-17T15:47:21;20.70;75.70
64705;DHT22;51131;52.298;13.686;2022-10-17T15:49:48;20.20;75.20
64705;DHT22;51131;52.298;13.686;2022-10-17T15:52:15;20.20;75.10
64705;DHT22;51131;52.298;13.686;2022-10-17T15:54:41;20.30;75.20
64705;DHT22;51131;52.298;13.686;2022-10-17T15:57:11;20.20;75.00
64705;DHT22;51131;52.298;13.686;2022-10-17T15:59:41;20.30;75.00
64705;DHT22;51131;52.298;13.686;2022-10-17T16:02:11;20.20;74.90
64705;DHT22;51131;52.298;13.686;2022-10-17T16:04:38;20.20;75.00
64705;DHT22;51131;52.298;13.686;2022-10-17T16:07:05;20.30;75.00
64705;DHT22;51131;52.298;13.686;2022-10-17T16:09:33;20.30;75.00
64705;DHT22;51131;52.298;13.686;2022-10-17T16:12:00;20.30;75.00
64705;DHT22;51131;52.298;13.686;2022-10-17T16:14:27;20.30;75.00
64705;DHT22;51131;52.298;13.686;2022-10-17T16:16:53;20.20;74.90
64705;DHT22;51131;52.298;13.686;2022-10-17T16:19:20;20.30;75.10
64705;DHT22;51131;52.298;13.686;2022-10-17T16:21:48;20.20;75.00
64705;DHT22;51131;52.298;13.686;2022-10-17T16:24:14;20.30;75.10
64705;DHT22;51131;52.298;13.686;2022-10-17T16:26:43;20.30;75.20
64705;DHT22;51131;52.298;13.686;2022-10-17T16:29:09;20.30;75.10
64705;DHT22;51131;52.298;13.686;2022-10-17T16:31:38;20.30;75.10
64705;DHT22;51131;52.298;13.686;2022-10-17T16:34:05;20.70;75.50
64705;DHT22;51131;52.298;13.686;2022-10-17T16:36:34;20.20;75.00
64705;DHT22;51131;52.298;13.686;2022-10-17T16:39:01;20.20;75.00
64705;DHT22;51131;52.298;13.686;2022-10-17T16:41:29;20.20;74.90
64705;DHT22;51131;52.298;13.686;2022-10-17T16:44:00;20.30;75.10
64705;DHT22;51131;52.298;13.686;2022-10-17T16:46:28;20.30;75.10
64705;DHT22;51131;52.298;13.686;2022-10-17T16:48:55;20.30;75.20
64705;DHT22;51131;52.298;13.686;2022-10-17T16:51:22;20.30;75.10
64705;DHT22;51131;52.298;13.686;2022-10-17T16:53:49;20.30;75.20
64705;DHT22;51131;52.298;13.686;2022-10-17T16:56:16;20.30;75.20
64705;DHT22;51131;52.298;13.686;2022-10-17T16:58:43;20.30;75.20
64705;DHT22;51131;52.298;13.686;2022-10-17T17:01:11;20.30;75.10
64705;DHT22;51131;52.298;13.686;2022-10-17T17:03:39;20.30;75.10
64705;DHT22;51131;52.298;13.686;2022-10-17T17:06:07;20.30;75.10
64705;DHT22;51131;52.298;13.686;2022-10-17T17:08:34;20.60;75.40
64705;DHT22;51131;52.298;13.686;2022-10-17T17:11:07;20.30;75.10
64705;DHT22;51131;52.298;13.686;2022-10-17T17:13:34;20.30;75.10
64705;DHT22;51131;52.298;13.686;2022-10-17T17:18:59;20.30;75.20
64705;DHT22;51131;52.298;13.686;2022-10-17T17:21:26;20.20;75.20
64705;DHT22;51131;52.298;13.686;2022-10-17T17:23:53;20.30;75.20